createdAt,value
2019-02-14T00:00:42.140Z,99.30
2019-02-14T00:03:09.925Z,99.20
2019-02-14T00:05:37.630Z,99.70
2019-02-14T00:08:05.370Z,99.90
2019-02-14T00:10:33.092Z,99.90
2019-02-14T00:13:00.849Z,99.90
2019-02-14T00:15:28.557Z,99.90
2019-02-14T00:17:56.291Z,99.90
2019-02-14T00:20:24.061Z,99.80
2019-02-14T00:22:51.741Z,99.80
2019-02-14T00:25:19.439Z,99.90
2019-02-14T00:27:47.174Z,99.60
2019-02-14T00:30:14.881Z,99.50
2019-02-14T00:32:42.601Z,99.40
2019-02-14T00:35:10.334Z,99.00
2019-02-14T00:37:38.089Z,98.90
2019-02-14T00:40:05.862Z,99.10
2019-02-14T00:42:33.615Z,99.20
2019-02-14T00:45:01.377Z,99.30
2019-02-14T00:47:29.109Z,99.50
2019-02-14T00:49:56.848Z,99.60
2019-02-14T00:52:24.469Z,99.90
2019-02-14T00:54:52.201Z,99.90
2019-02-14T00:57:19.948Z,99.90
2019-02-14T00:59:47.676Z,99.90
2019-02-14T01:02:15.427Z,99.90
2019-02-14T01:04:43.189Z,99.90
2019-02-14T01:07:10.917Z,99.90
2019-02-14T01:09:38.643Z,99.90
2019-02-14T01:12:07.092Z,99.90
2019-02-14T01:14:34.848Z,99.90
2019-02-14T01:17:02.587Z,99.90
2019-02-14T01:19:30.333Z,99.90
2019-02-14T01:21:58.045Z,99.90
2019-02-14T01:24:25.790Z,99.90
2019-02-14T01:26:53.513Z,99.90
2019-02-14T01:29:21.276Z,99.90
2019-02-14T01:31:48.989Z,99.90
2019-02-14T01:34:16.754Z,99.90
2019-02-14T01:36:44.469Z,99.90
2019-02-14T01:39:12.211Z,99.90
2019-02-14T01:41:39.937Z,99.90
2019-02-14T01:44:07.691Z,99.90
2019-02-14T01:46:35.421Z,99.90
2019-02-14T01:49:03.233Z,99.90
2019-02-14T01:51:31.009Z,99.90
2019-02-14T01:53:58.745Z,99.90
2019-02-14T01:56:26.481Z,99.90
2019-02-14T01:58:54.193Z,99.90
2019-02-14T02:01:21.924Z,99.90
2019-02-14T02:03:49.753Z,99.90
2019-02-14T02:06:17.492Z,99.90
2019-02-14T02:08:45.270Z,99.90
2019-02-14T02:11:32.369Z,99.90
2019-02-14T02:14:00.182Z,99.90
2019-02-14T02:16:27.945Z,99.90
2019-02-14T02:18:55.653Z,99.90
2019-02-14T02:21:23.372Z,99.90
2019-02-14T02:23:51.092Z,99.90
2019-02-14T02:26:18.897Z,99.90
2019-02-14T02:28:46.609Z,99.90
2019-02-14T02:31:16.194Z,99.90
2019-02-14T02:33:44.141Z,99.90
2019-02-14T02:36:11.861Z,99.90
2019-02-14T02:38:39.574Z,99.90
2019-02-14T02:41:07.337Z,99.90
2019-02-14T02:43:35.009Z,99.90
2019-02-14T02:46:02.737Z,99.90
2019-02-14T02:48:30.443Z,99.90
2019-02-14T02:50:58.177Z,99.90
2019-02-14T02:53:25.881Z,99.90
2019-02-14T02:55:53.635Z,99.90
2019-02-14T02:58:21.357Z,99.90
2019-02-14T03:00:49.093Z,99.90
2019-02-14T03:03:16.805Z,99.90
2019-02-14T03:05:44.654Z,99.90
2019-02-14T03:08:12.374Z,99.90
2019-02-14T03:10:40.118Z,99.90
2019-02-14T03:13:07.830Z,99.90
2019-02-14T03:15:35.552Z,99.90
2019-02-14T03:18:03.291Z,99.90
2019-02-14T03:20:30.989Z,99.90
2019-02-14T03:22:58.730Z,99.90
2019-02-14T03:25:26.437Z,99.90
2019-02-14T03:27:54.179Z,99.90
2019-02-14T03:30:21.917Z,99.90
2019-02-14T03:32:49.665Z,99.90
2019-02-14T03:35:17.373Z,99.90
2019-02-14T03:37:45.099Z,99.90
2019-02-14T03:40:12.857Z,99.90
2019-02-14T03:42:40.600Z,99.90
2019-02-14T03:45:11.401Z,99.90
2019-02-14T03:47:39.126Z,99.90
2019-02-14T03:50:07.237Z,99.90
2019-02-14T03:52:35.001Z,99.90
2019-02-14T03:55:02.739Z,99.90
2019-02-14T03:57:30.496Z,99.90
2019-02-14T03:59:58.218Z,99.90
2019-02-14T04:02:25.966Z,99.90
2019-02-14T04:04:53.762Z,99.90
2019-02-14T04:07:21.497Z,99.90
2019-02-14T04:09:49.229Z,99.90
2019-02-14T04:12:16.954Z,99.90
2019-02-14T04:14:44.675Z,99.90
2019-02-14T04:17:12.421Z,99.90
2019-02-14T04:19:40.159Z,99.90
2019-02-14T04:22:07.877Z,99.90
2019-02-14T04:24:35.615Z,99.90
2019-02-14T04:27:03.337Z,99.90
2019-02-14T04:29:31.038Z,99.90
2019-02-14T04:31:58.766Z,99.90
2019-02-14T04:34:26.473Z,99.90
2019-02-14T04:36:55.811Z,99.90
2019-02-14T04:39:23.741Z,99.90
2019-02-14T04:41:51.470Z,99.90
2019-02-14T04:44:19.201Z,99.90
2019-02-14T04:46:46.909Z,99.90
2019-02-14T04:49:14.740Z,99.90
2019-02-14T04:51:42.367Z,99.90
2019-02-14T04:54:10.092Z,99.90
2019-02-14T04:56:37.811Z,99.90
2019-02-14T04:59:05.547Z,99.90
2019-02-14T05:01:33.265Z,99.90
2019-02-14T05:04:01.072Z,99.90
2019-02-14T05:06:28.798Z,99.90
2019-02-14T05:08:56.533Z,99.90
2019-02-14T05:11:24.249Z,99.90
2019-02-14T05:13:51.979Z,99.90
2019-02-14T05:16:19.693Z,99.90
2019-02-14T05:18:47.433Z,99.90
2019-02-14T05:21:15.154Z,99.90
2019-02-14T05:23:42.879Z,99.90
2019-02-14T05:26:10.589Z,99.90
2019-02-14T05:28:38.345Z,99.90
2019-02-14T05:31:05.998Z,99.90
2019-02-14T05:33:33.770Z,99.90
2019-02-14T05:36:01.513Z,99.90
2019-02-14T05:38:29.278Z,99.90
2019-02-14T05:40:56.999Z,99.90
2019-02-14T05:43:24.722Z,99.90
2019-02-14T05:45:52.458Z,99.90
2019-02-14T05:48:20.198Z,99.90
2019-02-14T05:50:47.925Z,99.90
2019-02-14T05:53:15.637Z,99.90
2019-02-14T05:55:43.378Z,99.90
2019-02-14T05:58:11.097Z,99.90
2019-02-14T06:00:38.831Z,99.90
2019-02-14T06:03:06.617Z,99.90
2019-02-14T06:05:34.373Z,99.90
2019-02-14T06:08:02.095Z,99.90
2019-02-14T06:10:29.832Z,99.90
2019-02-14T06:12:57.723Z,99.90
2019-02-14T06:15:25.525Z,99.90
2019-02-14T06:17:53.264Z,99.90
2019-02-14T06:20:21.017Z,99.90
2019-02-14T06:22:48.738Z,99.90
2019-02-14T06:25:16.536Z,99.90
2019-02-14T06:27:44.269Z,99.90
2019-02-14T06:30:12.531Z,99.90
2019-02-14T06:32:40.262Z,99.90
2019-02-14T06:35:08.886Z,99.90
2019-02-14T06:37:36.593Z,99.90
2019-02-14T06:40:05.146Z,99.90
2019-02-14T06:42:32.925Z,99.90
2019-02-14T06:45:00.686Z,99.90
2019-02-14T06:47:31.308Z,99.90
2019-02-14T06:49:59.340Z,99.90
2019-02-14T06:52:27.086Z,99.90
2019-02-14T06:54:55.293Z,99.90
2019-02-14T06:57:23.004Z,99.90
2019-02-14T06:59:50.737Z,99.90
2019-02-14T07:02:18.473Z,99.90
2019-02-14T07:04:46.305Z,99.90
2019-02-14T07:07:18.582Z,99.90
2019-02-14T07:09:43.554Z,99.90
2019-02-14T07:12:11.305Z,99.90
2019-02-14T07:14:39.046Z,99.90
2019-02-14T07:17:06.789Z,99.90
2019-02-14T07:19:34.516Z,99.90
2019-02-14T07:22:02.341Z,99.90
2019-02-14T07:24:30.087Z,99.90
2019-02-14T07:26:57.831Z,99.90
2019-02-14T07:29:25.523Z,99.90
2019-02-14T07:31:53.271Z,99.90
2019-02-14T07:34:20.996Z,99.90
2019-02-14T07:36:48.727Z,99.90
2019-02-14T07:39:16.445Z,99.80
2019-02-14T07:41:44.161Z,99.40
2019-02-14T07:44:11.905Z,99.40
2019-02-14T07:46:39.661Z,99.50
2019-02-14T07:49:07.384Z,99.60
2019-02-14T07:51:35.145Z,99.70
2019-02-14T07:54:02.976Z,99.70
2019-02-14T07:56:30.682Z,99.60
2019-02-14T07:58:58.445Z,99.40
2019-02-14T08:01:26.213Z,99.20
2019-02-14T08:03:54.507Z,99.10
2019-02-14T08:06:22.249Z,99.00
2019-02-14T08:08:49.970Z,98.90
2019-02-14T08:11:17.665Z,99.30
2019-02-14T08:13:45.409Z,99.30
2019-02-14T08:16:13.141Z,99.40
2019-02-14T08:18:40.954Z,99.40
2019-02-14T08:21:08.682Z,99.40
2019-02-14T08:23:36.412Z,99.00
2019-02-14T08:26:10.632Z,99.30
2019-02-14T08:28:33.670Z,99.30
2019-02-14T08:31:01.383Z,99.30
2019-02-14T08:33:29.138Z,99.40
2019-02-14T08:35:56.881Z,99.40
2019-02-14T08:38:24.624Z,99.40
2019-02-14T08:40:52.345Z,99.30
2019-02-14T08:43:20.109Z,99.10
2019-02-14T08:45:47.830Z,99.20
2019-02-14T08:48:15.569Z,99.10
2019-02-14T08:50:43.285Z,99.10
2019-02-14T08:53:11.029Z,99.00
2019-02-14T08:55:38.772Z,98.90
2019-02-14T08:58:06.499Z,98.80
2019-02-14T09:00:34.220Z,98.60
2019-02-14T09:03:01.941Z,98.30
2019-02-14T09:05:29.749Z,98.00
2019-02-14T09:07:57.504Z,97.70
2019-02-14T09:10:25.205Z,97.20
2019-02-14T09:12:52.937Z,96.70
2019-02-14T09:15:20.669Z,96.30
2019-02-14T09:17:48.389Z,96.00
2019-02-14T09:20:16.162Z,95.80
2019-02-14T09:22:43.890Z,95.30
2019-02-14T09:25:11.614Z,95.20
2019-02-14T09:27:39.349Z,94.80
2019-02-14T09:30:07.161Z,94.70
2019-02-14T09:32:34.974Z,94.20
2019-02-14T09:35:02.746Z,94.10
2019-02-14T09:37:30.472Z,93.80
2019-02-14T09:39:58.207Z,93.30
2019-02-14T09:42:25.936Z,92.90
2019-02-14T09:44:53.679Z,92.80
2019-02-14T09:47:21.406Z,92.40
2019-02-14T09:49:49.123Z,92.30
2019-02-14T09:52:16.836Z,92.10
2019-02-14T09:54:44.571Z,92.10
2019-02-14T09:57:12.286Z,91.60
2019-02-14T09:59:40.105Z,91.10
2019-02-14T10:02:07.812Z,91.30
2019-02-14T10:04:35.532Z,91.20
2019-02-14T10:07:03.319Z,91.40
2019-02-14T10:09:31.106Z,90.80
2019-02-14T10:11:58.773Z,90.60
2019-02-14T10:14:26.501Z,90.60
2019-02-14T10:16:54.221Z,89.10
2019-02-14T10:19:21.945Z,87.70
2019-02-14T10:21:49.650Z,89.50
2019-02-14T10:24:17.386Z,89.10
2019-02-14T10:26:45.127Z,89.40
2019-02-14T10:29:12.869Z,86.70
2019-02-14T10:31:40.569Z,85.50
2019-02-14T10:34:08.320Z,84.10
2019-02-14T10:36:36.030Z,83.30
2019-02-14T10:39:04.682Z,82.50
2019-02-14T10:41:32.419Z,81.70
2019-02-14T10:44:00.152Z,81.00
2019-02-14T10:46:27.894Z,79.90
2019-02-14T10:48:55.605Z,81.10
2019-02-14T10:51:23.343Z,82.70
2019-02-14T10:53:51.744Z,83.00
2019-02-14T10:56:19.519Z,83.10
2019-02-14T10:58:47.260Z,83.80
2019-02-14T11:01:15.049Z,83.60
2019-02-14T11:03:43.029Z,83.00
2019-02-14T11:06:10.871Z,82.80
2019-02-14T11:08:38.640Z,82.70
2019-02-14T11:11:06.373Z,80.80
2019-02-14T11:13:34.111Z,80.80
2019-02-14T11:16:01.849Z,80.10
2019-02-14T11:18:29.561Z,80.20
2019-02-14T11:20:57.305Z,79.80
2019-02-14T11:23:25.021Z,80.10
2019-02-14T11:25:52.763Z,80.00
2019-02-14T11:28:20.525Z,77.30
2019-02-14T11:30:48.256Z,77.00
2019-02-14T11:33:15.981Z,78.80
2019-02-14T11:35:43.707Z,78.60
2019-02-14T11:38:11.479Z,78.60
2019-02-14T11:40:39.212Z,79.10
2019-02-14T11:43:06.961Z,77.50
2019-02-14T11:45:34.709Z,77.00
2019-02-14T11:48:02.419Z,77.00
2019-02-14T11:50:30.250Z,77.30
2019-02-14T11:52:58.157Z,77.20
2019-02-14T11:55:25.876Z,75.50
2019-02-14T11:57:53.642Z,75.80
2019-02-14T12:00:22.037Z,76.10
2019-02-14T12:02:55.576Z,76.40
2019-02-14T12:05:19.324Z,74.90
2019-02-14T12:07:47.104Z,75.70
2019-02-14T12:10:14.814Z,74.10
2019-02-14T12:12:42.606Z,74.40
2019-02-14T12:15:10.362Z,73.60
2019-02-14T12:17:38.118Z,73.50
2019-02-14T12:20:12.243Z,73.80
2019-02-14T12:22:35.808Z,72.90
2019-02-14T12:25:04.101Z,73.70
2019-02-14T12:27:31.810Z,71.40
2019-02-14T12:29:59.563Z,71.30
2019-02-14T12:32:27.267Z,70.60
2019-02-14T12:34:55.017Z,71.00
2019-02-14T12:37:22.757Z,71.30
2019-02-14T12:39:50.501Z,71.40
2019-02-14T12:42:18.222Z,70.60
2019-02-14T12:44:45.973Z,71.40
2019-02-14T12:47:13.665Z,70.50
2019-02-14T12:49:41.401Z,70.00
2019-02-14T12:52:09.164Z,69.80
2019-02-14T12:54:36.889Z,69.10
2019-02-14T12:57:04.619Z,68.60
2019-02-14T12:59:32.361Z,68.70
2019-02-14T13:02:00.087Z,68.00
2019-02-14T13:04:27.794Z,67.80
2019-02-14T13:06:55.536Z,66.60
2019-02-14T13:09:23.317Z,66.90
2019-02-14T13:11:51.057Z,67.40
2019-02-14T13:14:18.765Z,66.00
2019-02-14T13:16:46.497Z,66.90
2019-02-14T13:19:14.240Z,66.40
2019-02-14T13:21:42.029Z,65.90
2019-02-14T13:24:09.783Z,65.90
2019-02-14T13:26:37.474Z,65.30
2019-02-14T13:29:05.177Z,65.00
2019-02-14T13:31:32.892Z,65.80
2019-02-14T13:34:00.589Z,65.20
2019-02-14T13:36:28.316Z,64.00
2019-02-14T13:38:56.021Z,64.10
2019-02-14T13:41:30.889Z,63.30
2019-02-14T13:43:53.353Z,65.00
2019-02-14T13:46:21.077Z,63.90
2019-02-14T13:48:48.809Z,63.40
2019-02-14T13:51:16.569Z,63.20
2019-02-14T13:53:44.341Z,63.10
2019-02-14T13:56:12.072Z,63.30
2019-02-14T13:58:39.785Z,63.60
2019-02-14T14:01:07.503Z,63.00
2019-02-14T14:03:35.273Z,62.90
2019-02-14T14:06:03.437Z,62.80
2019-02-14T14:08:31.136Z,62.60
2019-02-14T14:10:58.933Z,63.40
2019-02-14T14:13:26.637Z,63.80
2019-02-14T14:15:54.373Z,64.00
2019-02-14T14:18:22.131Z,63.70
2019-02-14T14:20:49.963Z,63.20
2019-02-14T14:23:19.802Z,63.90
2019-02-14T14:25:47.247Z,62.90
2019-02-14T14:28:14.981Z,59.70
2019-02-14T14:30:42.718Z,57.80
2019-02-14T14:33:10.489Z,60.60
2019-02-14T14:35:38.223Z,61.80
2019-02-14T14:38:05.923Z,63.20
2019-02-14T14:40:33.653Z,61.90
2019-02-14T14:43:21.028Z,61.70
2019-02-14T14:46:10.728Z,62.10
2019-02-14T14:48:40.540Z,62.50
2019-02-14T14:51:08.301Z,60.90
2019-02-14T14:53:36.091Z,61.50
2019-02-14T14:56:03.849Z,62.50
2019-02-14T14:58:31.602Z,62.30
2019-02-14T15:00:59.359Z,62.00
2019-02-14T15:03:27.104Z,62.20
2019-02-14T15:05:56.036Z,62.40
2019-02-14T15:08:23.832Z,62.30
2019-02-14T15:10:51.626Z,62.60
2019-02-14T15:13:19.365Z,62.50
2019-02-14T15:15:47.107Z,63.00
2019-02-14T15:18:14.862Z,62.50
2019-02-14T15:20:42.618Z,63.60
2019-02-14T15:23:10.333Z,62.80
2019-02-14T15:25:38.072Z,63.30
2019-02-14T15:28:05.794Z,63.20
2019-02-14T15:30:33.599Z,62.90
2019-02-14T15:33:01.371Z,63.00
2019-02-14T15:35:29.101Z,63.30
2019-02-14T15:37:56.837Z,63.30
2019-02-14T15:40:24.582Z,63.10
2019-02-14T15:42:52.515Z,62.80
2019-02-14T15:45:20.221Z,63.10
2019-02-14T15:47:47.945Z,63.90
2019-02-14T15:50:15.762Z,64.30
2019-02-14T15:52:43.473Z,63.40
2019-02-14T15:55:11.218Z,63.90
2019-02-14T15:57:40.458Z,64.10
2019-02-14T16:00:10.741Z,64.50
2019-02-14T16:02:38.537Z,63.80
2019-02-14T16:05:06.526Z,62.20
2019-02-14T16:07:34.309Z,62.80
2019-02-14T16:10:05.418Z,63.70
2019-02-14T16:12:31.659Z,64.10
2019-02-14T16:14:59.405Z,63.80
2019-02-14T16:17:27.146Z,63.70
2019-02-14T16:19:55.941Z,64.80
2019-02-14T16:22:30.109Z,64.80
2019-02-14T16:24:54.058Z,65.20
2019-02-14T16:27:22.590Z,64.80
2019-02-14T16:29:51.289Z,65.30
2019-02-14T16:32:19.049Z,65.50
2019-02-14T16:34:46.761Z,65.70
2019-02-14T16:37:14.520Z,65.30
2019-02-14T16:39:51.335Z,66.10
2019-02-14T16:42:11.769Z,66.40
2019-02-14T16:44:39.516Z,65.60
2019-02-14T16:47:07.225Z,65.60
2019-02-14T16:49:34.985Z,65.60
2019-02-14T16:52:02.732Z,65.80
2019-02-14T16:54:30.525Z,66.10
2019-02-14T16:56:58.251Z,66.00
2019-02-14T16:59:26.358Z,66.70
2019-02-14T17:01:54.061Z,67.70
2019-02-14T17:04:21.821Z,68.70
2019-02-14T17:06:49.542Z,69.30
2019-02-14T17:09:17.449Z,70.00
2019-02-14T17:11:45.125Z,71.10
2019-02-14T17:14:12.878Z,72.10
2019-02-14T17:16:40.737Z,72.70
2019-02-14T17:19:08.475Z,73.30
2019-02-14T17:21:36.242Z,74.20
2019-02-14T17:24:04.097Z,74.80
2019-02-14T17:26:31.832Z,75.40
2019-02-14T17:28:59.636Z,76.60
2019-02-14T17:31:27.738Z,77.00
2019-02-14T17:33:55.787Z,77.70
2019-02-14T17:36:23.667Z,79.10
2019-02-14T17:38:51.634Z,79.10
2019-02-14T17:41:19.365Z,79.40
2019-02-14T17:43:47.113Z,79.50
2019-02-14T17:46:14.829Z,79.40
2019-02-14T17:48:42.575Z,79.60
2019-02-14T17:51:10.282Z,80.20
2019-02-14T17:53:38.041Z,80.50
2019-02-14T17:56:05.775Z,81.10
2019-02-14T17:58:33.504Z,81.10
2019-02-14T18:01:01.245Z,80.50
2019-02-14T18:03:29.660Z,80.80
2019-02-14T18:05:59.667Z,81.50
2019-02-14T18:08:27.502Z,80.80
2019-02-14T18:10:55.357Z,81.50
2019-02-14T18:13:23.005Z,81.80
2019-02-14T18:15:50.741Z,82.40
2019-02-14T18:18:18.470Z,82.50
2019-02-14T18:20:51.912Z,81.70
2019-02-14T18:23:20.227Z,81.30
2019-02-14T18:25:47.961Z,82.00
2019-02-14T18:28:15.719Z,82.50
2019-02-14T18:30:43.521Z,84.10
2019-02-14T18:33:11.287Z,83.20
2019-02-14T18:35:39.085Z,83.60
2019-02-14T18:38:06.813Z,83.50
2019-02-14T18:40:34.565Z,83.80
2019-02-14T18:43:02.286Z,84.10
2019-02-14T18:45:30.129Z,83.50
2019-02-14T18:47:57.853Z,83.50
2019-02-14T18:50:25.578Z,83.50
2019-02-14T18:52:53.353Z,83.40
2019-02-14T18:55:21.077Z,83.70
2019-02-14T18:57:48.813Z,83.90
2019-02-14T19:00:16.575Z,84.00
2019-02-14T19:02:44.372Z,84.30
2019-02-14T19:05:12.148Z,85.20
2019-02-14T19:07:39.925Z,84.80
2019-02-14T19:10:09.196Z,84.80
2019-02-14T19:12:37.042Z,85.00
2019-02-14T19:15:04.913Z,85.20
2019-02-14T19:17:32.745Z,85.20
2019-02-14T19:20:00.449Z,86.40
2019-02-14T19:22:28.229Z,86.20
2019-02-14T19:24:55.984Z,87.00
2019-02-14T19:27:23.701Z,87.40
2019-02-14T19:29:51.433Z,87.70
2019-02-14T19:32:19.173Z,88.10
2019-02-14T19:34:46.894Z,88.10
2019-02-14T19:37:14.629Z,88.40
2019-02-14T19:39:42.351Z,88.60
2019-02-14T19:42:10.123Z,88.80
2019-02-14T19:44:37.851Z,89.20
2019-02-14T19:47:05.624Z,89.40
2019-02-14T19:49:33.642Z,89.60
2019-02-14T19:52:01.447Z,90.10
2019-02-14T19:54:29.153Z,89.80
2019-02-14T19:56:56.899Z,90.00
2019-02-14T19:59:24.583Z,90.10
2019-02-14T20:01:52.308Z,90.10
2019-02-14T20:04:20.038Z,90.20
2019-02-14T20:06:47.741Z,90.40
2019-02-14T20:09:15.460Z,90.40
2019-02-14T20:11:43.243Z,90.40
2019-02-14T20:14:10.962Z,90.60
2019-02-14T20:16:38.690Z,90.80
2019-02-14T20:19:06.385Z,91.00
2019-02-14T20:21:34.127Z,91.20
2019-02-14T20:24:01.849Z,91.20
2019-02-14T20:26:29.648Z,91.30
2019-02-14T20:28:57.345Z,91.50
2019-02-14T20:31:26.442Z,91.60
2019-02-14T20:33:54.125Z,91.70
2019-02-14T20:36:21.855Z,91.80
2019-02-14T20:38:49.618Z,91.80
2019-02-14T20:41:17.354Z,92.00
2019-02-14T20:43:45.093Z,92.10
2019-02-14T20:46:12.824Z,92.20
2019-02-14T20:48:40.563Z,92.30
2019-02-14T20:51:08.337Z,92.30
2019-02-14T20:53:36.114Z,92.30
2019-02-14T20:56:03.851Z,92.40
2019-02-14T20:58:31.596Z,92.50
2019-02-14T21:00:59.762Z,92.70
2019-02-14T21:03:27.515Z,92.60
2019-02-14T21:05:55.237Z,92.40
2019-02-14T21:08:22.987Z,92.30
2019-02-14T21:10:50.729Z,92.20
2019-02-14T21:13:18.525Z,92.20
2019-02-14T21:15:46.231Z,92.40
2019-02-14T21:18:14.015Z,92.30
2019-02-14T21:20:41.730Z,92.30
2019-02-14T21:23:09.617Z,92.20
2019-02-14T21:25:37.389Z,92.20
2019-02-14T21:28:05.109Z,92.30
2019-02-14T21:30:35.640Z,92.30
2019-02-14T21:33:02.456Z,92.40
2019-02-14T21:35:30.353Z,92.40
2019-02-14T21:37:58.127Z,92.50
2019-02-14T21:40:25.923Z,92.60
2019-02-14T21:42:53.743Z,92.60
2019-02-14T21:45:21.614Z,92.50
2019-02-14T21:47:49.349Z,92.50
2019-02-14T21:50:17.130Z,92.50
2019-02-14T21:52:45.003Z,92.40
2019-02-14T21:55:12.929Z,92.30
2019-02-14T21:57:40.686Z,92.20
2019-02-14T22:00:11.340Z,92.20
2019-02-14T22:02:39.161Z,92.00
2019-02-14T22:05:07.389Z,92.00
2019-02-14T22:07:35.423Z,91.90
2019-02-14T22:10:03.479Z,91.60
2019-02-14T22:12:39.747Z,91.70
2019-02-14T22:15:00.938Z,91.50
2019-02-14T22:17:28.665Z,91.50
2019-02-14T22:19:56.730Z,91.20
2019-02-14T22:22:24.471Z,91.30
2019-02-14T22:24:52.217Z,91.30
2019-02-14T22:27:21.018Z,91.20
2019-02-14T22:29:48.760Z,91.00
2019-02-14T22:32:19.137Z,90.80
2019-02-14T22:34:47.277Z,90.50
2019-02-14T22:37:15.027Z,90.60
2019-02-14T22:39:42.736Z,90.50
2019-02-14T22:42:10.753Z,90.50
2019-02-14T22:44:38.489Z,90.10
2019-02-14T22:47:06.218Z,90.10
2019-02-14T22:49:33.960Z,89.80
2019-02-14T22:52:01.693Z,89.30
2019-02-14T22:54:29.427Z,88.60
2019-02-14T22:56:57.221Z,88.40
2019-02-14T22:59:25.074Z,88.40
2019-02-14T23:01:52.913Z,88.20
2019-02-14T23:04:20.604Z,87.50
2019-02-14T23:06:48.338Z,87.40
2019-02-14T23:09:16.050Z,86.40
2019-02-14T23:11:43.777Z,86.00
2019-02-14T23:14:11.521Z,86.00
2019-02-14T23:16:39.243Z,85.80
2019-02-14T23:19:06.965Z,84.80
2019-02-14T23:21:34.733Z,84.40
2019-02-14T23:24:02.453Z,83.80
2019-02-14T23:26:30.232Z,83.60
2019-02-14T23:28:57.968Z,82.70
2019-02-14T23:31:25.684Z,81.70
2019-02-14T23:33:53.401Z,82.20
2019-02-14T23:36:21.141Z,81.50
2019-02-14T23:38:48.853Z,81.10
2019-02-14T23:41:16.593Z,79.80
2019-02-14T23:43:44.342Z,79.60
2019-02-14T23:46:12.077Z,80.10
2019-02-14T23:48:39.799Z,79.70
2019-02-14T23:51:07.534Z,79.40
2019-02-14T23:53:35.243Z,78.60
2019-02-14T23:56:02.973Z,78.80
2019-02-14T23:58:30.697Z,77.80
